Strona główna
Zdjęcia satelitarne 10-dni prognozyKlimatMeteorologia morska Cyklony Błyskawica LotniskoFAQ Gazetka O
Pogoda : Europa Afryka Ameryka Północna Ameryka Południowa Azja Australia-Oceania Inny
Języki Kontakt

Kraków, Polska

Port lotniczy Kraków-Balice

Szerokość geograficzna: 50-05N, Długość geograficzna: 019-48E, wysokość: 237 m


METAR: EPKK 291930Z 26004KT CAVOK 18/12 Q1008
TAF: EPKK 291730Z 2918/3018 25009KT CAVOK TEMPO 2920/3006 4000 SHRA BKN025CB

czas: 21:59 (19:59 UTC)

Aktualna obserwacja pogody

Raport powstał 29 minut temu, godzina 19:30 UTC
Wiatr 4 kt od zachód
Temperatura 18°C
Wilgotność 68%
Ciśnienie 1008 hPa
Widzialność 10 km lub więcej
Brak chmur poniżej 1500 m i brak chmur cumulonimbus

Jednostka miary

Prognoza

Raport powstał 2 godziny i 29 minut temu, godzina 17:30 UTC
Prognoza ważna od 29 godzina 18 UTC do 30 godzina 18 UTC
Wiatr 9 kt od zachodnio-południowy zachód
Widzialność 10 km lub więcej
Brak chmur poniżej 1500 m i brak chmur cumulonimbus
Przejściowo
od 29 godzina 20 UTC do 30 godzina 06 UTC
Widzialność: 4000 m
Przerywane chmury na wysokości 2500 ft, Cumulonimbus.
przelotny opad deszczu
Informacje na tej stronie internetowej podlegają klauzuli o wyłączeniu odpowiedzialności
Pogoda : Europa Afryka Ameryka Północna Ameryka Południowa Azja Australia-Oceania Inny
Zdjęcia satelitarne 10-dni prognozyKlimatMeteorologia morska Cyklony Błyskawica LotniskoFAQ Języki Kontakt Gazetka O